Airport View

Enter AWOS ICAO identifier for current METAR.

ex. KFNL

KRBO 100335Z AUTO 14010KT 10SM CLR 27/25 A2990 RMK AO2 T02700245

10 Jul 2020 03:53

Frequency: 118.175

Phone: 361-767-1982

Other Area AWOS: KCRP - KALI - KNGP - KIKG

TAF KCRP 092333Z 1000/1024 14020G25KT P6SM FEW030 FM100300 14015KT P6SM SCT020 FM100600 16010KT P6SM BKN012 FM101500 17010G20KT P6SM SCT025 BKN035 FM101900 14018G24KT P6SM SCT035